Lakeside Park, Kentucky
Current Conditions -  °F | °C
As of 11:38 AM on Thursday 29 Jan 2015 (Local Time) from KI69 Reporting Station
Overcast Overcast  
Wind Chill: 50°   Ceiling: 4000
Heat Index: 50°   Visibility: 10mi
Dew Point: 36°   Wind: 13mph
Humidity: 58%   Direction: 220°SW
Pressure: 29.84"   Gusts: 20mph
Location:  39.0279°N, 84.5635°W
Report Text: KI69 291638Z AUTO 22011G17KT 10SM OVC040 10/02 A2984 RMK AO1
Loading
Personal Weather Stations






























Interactive Weather Map New forecast layout! Learn more

10-Day Weather Forecast

Advertisements
Track Severe Weather on mobile